createdAt,value
2022-12-15T00:00:34.990Z,99848.84
2022-12-15T00:01:55.202Z,99848.84
2022-12-15T00:03:15.915Z,99854.97
2022-12-15T00:04:36.311Z,99836.84
2022-12-15T00:05:56.583Z,99817.50
2022-12-15T00:07:17.029Z,99843.56
2022-12-15T00:08:37.715Z,99832.41
2022-12-15T00:09:58.196Z,99846.34
2022-12-15T00:11:21.205Z,99851.72
2022-12-15T00:12:41.399Z,99856.91
2022-12-15T00:14:02.567Z,99856.06
2022-12-15T00:15:23.217Z,99842.88
2022-12-15T00:16:43.583Z,99851.63
2022-12-15T00:18:04.113Z,99859.56
2022-12-15T00:19:24.341Z,99857.03
2022-12-15T00:20:44.457Z,99863.16
2022-12-15T00:22:04.582Z,99866.78
2022-12-15T00:23:29.670Z,99878.16
2022-12-15T00:24:50.159Z,99875.41
2022-12-15T00:26:10.315Z,99876.38
2022-12-15T00:27:30.925Z,99878.16
2022-12-15T00:28:51.331Z,99864.47
2022-12-15T00:30:11.563Z,99885.28
2022-12-15T00:31:32.069Z,99871.19
2022-12-15T00:32:52.529Z,99873.84
2022-12-15T00:34:12.968Z,99873.00
2022-12-15T00:35:33.491Z,99876.50
2022-12-15T00:36:53.785Z,99872.16
2022-12-15T00:38:13.770Z,99862.19
2022-12-15T00:39:15.682Z,99879.13
2022-12-15T00:40:17.662Z,99882.13
2022-12-15T00:41:19.467Z,99881.41
2022-12-15T00:42:21.233Z,99877.22
2022-12-15T00:43:23.129Z,99884.19
2022-12-15T00:44:25.185Z,99874.38
2022-12-15T00:45:47.009Z,99884.44
2022-12-15T00:46:54.758Z,99888.38
2022-12-15T00:47:56.643Z,99896.31
2022-12-15T00:48:58.969Z,99888.16
2022-12-15T00:50:24.052Z,99888.63
2022-12-15T00:51:44.471Z,99892.47
2022-12-15T00:53:04.963Z,99879.63
2022-12-15T00:54:25.432Z,99872.66
2022-12-15T00:55:46.145Z,99877.94
2022-12-15T00:57:06.375Z,99892.25
2022-12-15T00:58:26.541Z,99892.25
2022-12-15T00:59:46.725Z,99893.06
2022-12-15T01:01:07.392Z,99886.47
2022-12-15T01:02:27.507Z,99893.06
2022-12-15T01:03:47.946Z,99897.53
2022-12-15T01:05:08.399Z,99899.22
2022-12-15T01:06:34.927Z,99890.19
2022-12-15T01:07:55.426Z,99895.59
2022-12-15T01:09:16.094Z,99895.97
2022-12-15T01:10:37.806Z,99890.56
2022-12-15T01:11:58.467Z,99903.66
2022-12-15T01:13:18.725Z,99907.25
2022-12-15T01:14:39.169Z,99911.72
2022-12-15T01:15:59.895Z,99901.25
2022-12-15T01:17:20.422Z,99906.44
2022-12-15T01:18:41.529Z,99905.56
2022-12-15T01:20:01.569Z,99910.88
2022-12-15T01:21:06.247Z,99903.03
2022-12-15T01:22:08.274Z,99911.94
2022-12-15T01:23:10.172Z,99916.63
2022-12-15T01:24:11.963Z,99903.19
2022-12-15T01:25:15.103Z,99908.97
2022-12-15T01:26:16.882Z,99898.72
2022-12-15T01:27:18.753Z,99908.97
2022-12-15T01:28:22.021Z,99915.22
2022-12-15T01:29:24.598Z,99909.06
2022-12-15T01:30:27.617Z,99904.03
2022-12-15T01:31:29.715Z,99903.78
2022-12-15T01:32:31.850Z,99908.09
2022-12-15T01:33:34.003Z,99898.03
2022-12-15T01:34:35.934Z,99891.19
2022-12-15T01:35:38.928Z,99904.50
2022-12-15T01:36:40.738Z,99902.72
2022-12-15T01:37:42.568Z,99902.00
2022-12-15T01:38:46.938Z,99908.81
2022-12-15T01:40:20.360Z,99897.53
2022-12-15T01:41:22.671Z,99903.19
2022-12-15T01:42:24.591Z,99915.44
2022-12-15T01:43:32.404Z,99904.13
2022-12-15T01:44:36.821Z,99909.44
2022-12-15T01:45:48.837Z,99895.38
2022-12-15T01:46:55.428Z,99908.72
2022-12-15T01:48:06.071Z,99912.06
2022-12-15T01:49:23.457Z,99905.56
2022-12-15T01:50:27.029Z,99892.13
2022-12-15T01:51:35.834Z,99901.84
2022-12-15T01:52:37.645Z,99911.09
2022-12-15T01:53:55.898Z,99906.88
2022-12-15T01:54:58.602Z,99908.47
2022-12-15T01:56:00.822Z,99906.06
2022-12-15T01:57:14.013Z,99912.31
2022-12-15T01:58:20.101Z,99901.59
2022-12-15T01:59:28.158Z,99905.22
2022-12-15T02:00:31.059Z,99900.78
2022-12-15T02:01:33.191Z,99905.59
2022-12-15T02:02:40.333Z,99895.72
2022-12-15T02:03:44.127Z,99902.72
2022-12-15T02:04:46.400Z,99901.84
2022-12-15T02:05:48.781Z,99906.31
2022-12-15T02:06:50.732Z,99905.47
2022-12-15T02:07:52.547Z,99904.97
2022-12-15T02:08:57.174Z,99913.53
2022-12-15T02:10:02.846Z,99902.72
2022-12-15T02:11:10.616Z,99909.06
2022-12-15T02:12:37.752Z,99912.19
2022-12-15T02:14:00.968Z,99910.97
2022-12-15T02:15:20.859Z,99911.09
2022-12-15T02:16:54.896Z,99919.75
2022-12-15T02:18:23.537Z,99917.94
2022-12-15T02:19:28.213Z,99920.72
2022-12-15T02:20:59.719Z,99911.84
2022-12-15T02:22:10.632Z,99922.66
2022-12-15T02:23:21.394Z,99921.94
2022-12-15T02:24:45.977Z,99921.94
2022-12-15T02:26:13.105Z,99932.25
2022-12-15T02:27:21.113Z,99927.31
2022-12-15T02:28:32.145Z,99930.09
2022-12-15T02:29:58.443Z,99937.19
2022-12-15T02:31:49.941Z,99937.06
2022-12-15T02:33:07.411Z,99930.34
2022-12-15T02:34:18.054Z,99940.44
2022-12-15T02:35:51.409Z,99938.63
2022-12-15T02:37:07.122Z,99930.22
2022-12-15T02:38:09.879Z,99927.09
2022-12-15T02:39:13.107Z,99909.09
2022-12-15T02:40:14.888Z,99942.13
2022-12-15T02:41:35.765Z,99937.91
2022-12-15T02:42:44.721Z,99941.88
2022-12-15T02:43:46.721Z,99941.03
2022-12-15T02:44:57.595Z,99924.47
2022-12-15T02:46:22.233Z,99940.44
2022-12-15T02:47:46.444Z,99925.31
2022-12-15T02:49:00.505Z,99934.66
2022-12-15T02:50:04.977Z,99943.56
2022-12-15T02:51:29.827Z,99939.34
2022-12-15T02:53:10.324Z,99939.00
2022-12-15T02:54:35.486Z,99939.72
2022-12-15T02:56:08.119Z,99927.31
2022-12-15T02:57:15.806Z,99939.00
2022-12-15T02:58:42.068Z,99937.56
2022-12-15T02:59:57.023Z,99943.56
2022-12-15T03:01:08.300Z,99931.19
2022-12-15T03:02:12.732Z,99926.13
2022-12-15T03:03:20.484Z,99942.38
2022-12-15T03:04:23.248Z,99943.34
2022-12-15T03:05:25.915Z,99933.34
2022-12-15T03:06:28.858Z,99932.97
2022-12-15T03:07:30.643Z,99952.31
2022-12-15T03:08:32.516Z,99951.47
2022-12-15T03:09:34.509Z,99939.22
2022-12-15T03:10:36.388Z,99939.22
2022-12-15T03:11:38.554Z,99938.41
2022-12-15T03:12:40.485Z,99938.25
2022-12-15T03:13:42.250Z,99901.75
2022-12-15T03:14:44.266Z,99924.56
2022-12-15T03:15:46.153Z,99929.50
2022-12-15T03:16:48.052Z,99934.78
2022-12-15T03:17:49.913Z,99935.75
2022-12-15T03:18:52.573Z,99939.22
2022-12-15T03:19:54.429Z,99925.19
2022-12-15T03:20:56.323Z,99911.00
2022-12-15T03:21:58.182Z,99923.84
2022-12-15T03:22:59.942Z,99922.53
2022-12-15T03:24:01.826Z,99928.66
2022-12-15T03:25:04.345Z,99938.41
2022-12-15T03:26:06.707Z,99933.94
2022-12-15T03:27:08.705Z,99949.78
2022-12-15T03:28:10.487Z,99950.03
2022-12-15T03:29:12.309Z,99938.88
2022-12-15T03:30:14.957Z,99936.72
2022-12-15T03:31:17.294Z,99936.59
2022-12-15T03:32:19.202Z,99949.78
2022-12-15T03:33:21.583Z,99950.75
2022-12-15T03:34:23.455Z,99949.78
2022-12-15T03:35:25.212Z,99941.03
2022-12-15T03:36:27.023Z,99906.09
2022-12-15T03:37:29.040Z,99950.75
2022-12-15T03:38:30.833Z,99923.38
2022-12-15T03:39:32.581Z,99943.78
2022-12-15T03:40:34.498Z,99940.31
2022-12-15T03:41:36.368Z,99943.78
2022-12-15T03:42:50.356Z,99951.72
2022-12-15T03:43:52.133Z,99929.13
2022-12-15T03:44:53.895Z,99946.31
2022-12-15T03:45:56.045Z,99924.22
2022-12-15T03:47:02.955Z,99952.56
2022-12-15T03:48:05.525Z,99953.41
2022-12-15T03:49:07.396Z,99949.94
2022-12-15T03:50:09.898Z,99938.16
2022-12-15T03:51:11.699Z,99948.25
2022-12-15T03:52:13.469Z,99955.31
2022-12-15T03:53:15.290Z,99956.19
2022-12-15T03:54:17.162Z,99963.25
2022-12-15T03:55:19.820Z,99958.91
2022-12-15T03:56:21.693Z,99935.50
2022-12-15T03:57:23.565Z,99965.16
2022-12-15T03:58:25.399Z,99966.84
2022-12-15T03:59:27.307Z,99954.25
2022-12-15T04:00:29.349Z,99968.66
2022-12-15T04:01:33.804Z,99952.69
2022-12-15T04:02:35.780Z,99975.75
2022-12-15T04:03:37.803Z,99967.94
2022-12-15T04:04:39.824Z,99970.47
2022-12-15T04:05:41.789Z,99967.09
2022-12-15T04:06:43.638Z,99963.50
2022-12-15T04:07:45.536Z,99962.75
2022-12-15T04:08:47.322Z,99957.47
2022-12-15T04:09:51.706Z,99961.81
2022-12-15T04:10:53.577Z,99971.66
2022-12-15T04:11:55.418Z,99959.31
2022-12-15T04:13:04.894Z,99960.25
2022-12-15T04:14:06.723Z,99958.19
2022-12-15T04:15:10.391Z,99962.75
2022-12-15T04:16:17.815Z,99961.94
2022-12-15T04:17:21.453Z,99967.09
2022-12-15T04:18:23.289Z,99965.31
2022-12-15T04:19:43.625Z,99956.91
2022-12-15T04:20:45.406Z,99969.38
2022-12-15T04:21:47.251Z,99969.50
2022-12-15T04:22:50.311Z,99962.75
2022-12-15T04:24:10.687Z,99973.09
2022-12-15T04:25:33.499Z,99968.53
2022-12-15T04:26:53.734Z,99978.88
2022-12-15T04:28:14.681Z,99984.88
2022-12-15T04:29:34.869Z,99985.72
2022-12-15T04:30:55.877Z,99983.94
2022-12-15T04:32:16.529Z,99976.47
2022-12-15T04:33:38.079Z,99984.88
2022-12-15T04:34:58.918Z,99972.63
2022-12-15T04:36:19.653Z,99982.22
2022-12-15T04:37:40.048Z,99952.44
2022-12-15T04:39:00.497Z,99984.88
2022-12-15T04:40:20.755Z,99978.75
2022-12-15T04:41:42.193Z,99972.63
2022-12-15T04:43:05.804Z,99969.50
2022-12-15T04:44:26.350Z,99960.84
2022-12-15T04:45:46.825Z,99967.47
2022-12-15T04:47:06.866Z,99976.34
2022-12-15T04:48:27.646Z,99979.97
2022-12-15T04:49:48.182Z,99969.50
2022-12-15T04:51:08.506Z,99982.59
2022-12-15T04:52:28.814Z,99987.03
2022-12-15T04:53:49.277Z,99977.41
2022-12-15T04:55:09.482Z,99976.47
2022-12-15T04:56:31.217Z,99980.06
2022-12-15T04:57:51.746Z,99974.78
2022-12-15T04:59:11.994Z,99973.94
2022-12-15T05:00:33.036Z,99962.28
2022-12-15T05:01:53.722Z,99979.25
2022-12-15T05:03:29.866Z,99979.25
2022-12-15T05:04:50.179Z,99980.06
2022-12-15T05:06:11.099Z,99970.47
2022-12-15T05:07:31.320Z,99986.31
2022-12-15T05:08:51.645Z,99985.59
2022-12-15T05:10:15.178Z,99980.31
2022-12-15T05:11:35.708Z,99985.59
2022-12-15T05:12:55.882Z,99985.59
2022-12-15T05:14:16.077Z,99961.81
2022-12-15T05:15:36.602Z,99987.41
2022-12-15T05:16:57.357Z,99986.56
2022-12-15T05:18:17.932Z,99975.75
2022-12-15T05:19:38.116Z,99989.19
2022-12-15T05:20:58.398Z,99978.63
2022-12-15T05:22:18.665Z,99992.69
2022-12-15T05:23:38.947Z,99979.09
2022-12-15T05:24:59.204Z,99979.09
2022-12-15T05:26:19.419Z,99991.00
2022-12-15T05:27:39.687Z,99991.84
2022-12-15T05:28:59.895Z,99993.03
2022-12-15T05:30:20.103Z,99985.00
2022-12-15T05:31:40.499Z,99993.75
2022-12-15T05:32:42.270Z,99974.28
2022-12-15T05:33:44.019Z,99989.66
2022-12-15T05:34:45.810Z,99972.00
2022-12-15T05:35:47.553Z,99991.72
2022-12-15T05:36:50.451Z,99978.97
2022-12-15T05:37:52.320Z,99983.91
2022-12-15T05:38:54.161Z,99979.19
2022-12-15T05:39:56.013Z,99984.00
2022-12-15T05:40:59.413Z,99992.78
2022-12-15T05:42:01.276Z,99980.41
2022-12-15T05:43:03.333Z,99990.97
2022-12-15T05:44:05.427Z,99990.97
2022-12-15T05:45:07.716Z,99996.25
2022-12-15T05:46:09.553Z,99996.25
2022-12-15T05:47:11.932Z,99991.81
2022-12-15T05:48:14.742Z,99981.72
2022-12-15T05:49:17.910Z,99993.50
2022-12-15T05:50:21.021Z,99989.19
2022-12-15T05:51:23.061Z,99986.53
2022-12-15T05:52:24.953Z,99980.88
2022-12-15T05:53:26.780Z,99997.84
2022-12-15T05:54:28.573Z,99999.53
2022-12-15T05:55:30.392Z,99995.19
2022-12-15T05:56:32.349Z,99981.72
2022-12-15T05:57:34.095Z,99973.91
2022-12-15T05:58:41.377Z,99987.25
2022-12-15T05:59:46.501Z,99968.38
2022-12-15T06:00:48.314Z,99979.09
2022-12-15T06:01:50.238Z,99973.09
2022-12-15T06:02:52.103Z,99947.72
2022-12-15T06:03:53.953Z,99959.63
2022-12-15T06:04:55.803Z,99978.28
2022-12-15T06:05:58.462Z,99968.16
2022-12-15T06:07:00.228Z,99986.06
2022-12-15T06:08:02.042Z,99980.78
2022-12-15T06:09:04.142Z,99988.59
2022-12-15T06:10:06.319Z,99977.66
2022-12-15T06:11:10.061Z,99994.47
2022-12-15T06:12:12.025Z,99968.53
2022-12-15T06:13:13.946Z,99990.78
2022-12-15T06:14:15.848Z,99973.81
2022-12-15T06:15:17.614Z,99995.69
2022-12-15T06:16:21.875Z,100005.19
2022-12-15T06:17:23.687Z,100013.59
2022-12-15T06:18:28.707Z,99996.41
2022-12-15T06:19:30.553Z,100007.00
2022-12-15T06:20:32.318Z,100009.91
2022-12-15T06:21:35.941Z,100021.53
2022-12-15T06:22:37.783Z,100022.16
2022-12-15T06:23:40.730Z,100027.31
2022-12-15T06:24:42.590Z,100024.22
2022-12-15T06:25:44.461Z,100017.81
2022-12-15T06:26:46.874Z,100019.25
2022-12-15T06:27:51.731Z,100017.09
2022-12-15T06:28:56.982Z,100008.19
2022-12-15T06:29:58.911Z,100002.56
2022-12-15T06:31:04.337Z,100012.88
2022-12-15T06:32:06.210Z,100008.94
2022-12-15T06:33:08.050Z,100010.47
2022-12-15T06:34:15.801Z,100010.94
2022-12-15T06:35:17.599Z,100006.25
2022-12-15T06:36:19.946Z,100010.34
2022-12-15T06:37:21.803Z,99999.03
2022-12-15T06:38:23.562Z,100015.03
2022-12-15T06:39:25.393Z,100024.50
2022-12-15T06:40:27.753Z,100025.13
2022-12-15T06:41:30.704Z,100027.50
2022-12-15T06:42:32.725Z,100024.97
2022-12-15T06:43:35.143Z,100026.31
2022-12-15T06:44:37.077Z,100033.66
2022-12-15T06:45:38.845Z,100037.84
2022-12-15T06:46:40.726Z,100028.13
2022-12-15T06:47:42.631Z,100018.00
2022-12-15T06:48:46.033Z,100023.28
2022-12-15T06:49:47.867Z,100032.56
2022-12-15T06:50:50.519Z,100035.91
2022-12-15T06:51:52.446Z,100035.53
2022-12-15T06:52:54.222Z,100032.88
2022-12-15T06:53:56.530Z,100037.81
2022-12-15T06:54:58.462Z,100043.69
2022-12-15T06:56:05.467Z,100036.59
2022-12-15T06:57:07.210Z,100040.56
2022-12-15T06:58:09.704Z,100031.16
2022-12-15T06:59:12.130Z,100035.97
2022-12-15T07:00:15.478Z,100024.06
2022-12-15T07:01:18.580Z,100046.31
2022-12-15T07:02:25.324Z,100032.13
2022-12-15T07:03:31.196Z,100041.59
2022-12-15T07:04:33.760Z,100053.03
2022-12-15T07:05:35.737Z,100029.72
2022-12-15T07:06:39.211Z,100052.91
2022-12-15T07:07:41.023Z,100052.78
2022-12-15T07:08:44.337Z,100042.81
2022-12-15T07:09:46.149Z,100051.81
2022-12-15T07:10:47.921Z,100054.31
2022-12-15T07:11:51.444Z,100049.03
2022-12-15T07:12:56.087Z,100053.25
2022-12-15T07:13:57.983Z,100050.59
2022-12-15T07:15:00.017Z,100048.06
2022-12-15T07:16:03.617Z,100055.91
2022-12-15T07:17:05.423Z,100050.44
2022-12-15T07:18:07.938Z,100048.19
2022-12-15T07:19:13.186Z,100054.47
2022-12-15T07:20:15.145Z,100056.00
2022-12-15T07:21:17.313Z,100064.56
2022-12-15T07:22:20.442Z,100066.22
2022-12-15T07:23:34.416Z,100056.16
2022-12-15T07:24:44.516Z,100055.19
2022-12-15T07:25:46.443Z,100043.16
2022-12-15T07:26:48.940Z,100064.31
2022-12-15T07:27:50.930Z,100064.56
2022-12-15T07:28:54.198Z,100035.47
2022-12-15T07:29:56.242Z,100065.16
2022-12-15T07:31:07.465Z,100056.34
2022-12-15T07:32:09.297Z,100063.22
2022-12-15T07:33:11.151Z,100056.25
2022-12-15T07:34:12.957Z,100059.72
2022-12-15T07:35:14.837Z,100059.38
2022-12-15T07:36:16.730Z,100050.94
2022-12-15T07:37:18.546Z,100056.25
2022-12-15T07:38:20.318Z,100059.84
2022-12-15T07:39:22.101Z,100046.50
2022-12-15T07:40:23.920Z,100054.66
2022-12-15T07:41:25.872Z,100065.72
2022-12-15T07:42:30.873Z,100066.69
2022-12-15T07:43:33.618Z,100058.41
2022-12-15T07:44:36.084Z,100067.41
2022-12-15T07:45:37.951Z,100069.59
2022-12-15T07:46:39.801Z,100065.72
2022-12-15T07:47:41.706Z,100038.94
2022-12-15T07:48:43.753Z,100068.38
2022-12-15T07:49:46.069Z,100060.44
2022-12-15T07:50:47.999Z,100061.28
2022-12-15T07:51:52.345Z,100065.72
2022-12-15T07:52:54.778Z,100052.28
2022-12-15T07:53:56.589Z,100065.72
2022-12-15T07:54:58.570Z,100072.00
2022-12-15T07:56:08.493Z,100067.66
2022-12-15T07:57:11.274Z,100078.00
2022-12-15T07:58:13.119Z,100065.78
2022-12-15T07:59:14.938Z,100079.94
2022-12-15T08:00:17.710Z,100070.31
2022-12-15T08:01:19.714Z,100075.75
2022-12-15T08:02:21.723Z,100068.63
2022-12-15T08:03:24.556Z,100051.09
2022-12-15T08:04:27.398Z,100072.34
2022-12-15T08:05:29.352Z,100077.53
2022-12-15T08:06:31.142Z,100083.81
2022-12-15T08:07:32.918Z,100077.66
2022-12-15T08:08:35.670Z,100082.13
2022-12-15T08:09:37.869Z,100086.56
2022-12-15T08:10:40.201Z,100098.03
2022-12-15T08:11:43.210Z,100088.41
2022-12-15T08:12:45.061Z,100099.00
2022-12-15T08:14:03.932Z,100090.09
2022-12-15T08:15:07.407Z,100101.41
2022-12-15T08:16:09.504Z,100084.31
2022-12-15T08:17:11.355Z,100100.69
2022-12-15T08:18:13.551Z,100097.16
2022-12-15T08:19:17.741Z,100095.50
2022-12-15T08:20:19.508Z,100097.16
2022-12-15T08:21:21.350Z,100102.63
2022-12-15T08:22:23.102Z,100108.75
2022-12-15T08:23:24.864Z,100100.94
2022-12-15T08:24:26.636Z,100109.13
2022-12-15T08:25:28.922Z,100106.34
2022-12-15T08:26:31.605Z,100108.88
2022-12-15T08:27:33.600Z,100118.63
2022-12-15T08:28:36.635Z,100109.38
2022-12-15T08:29:53.799Z,100122.13
2022-12-15T08:30:55.616Z,100130.53
2022-12-15T08:31:57.609Z,100118.50
2022-12-15T08:32:59.548Z,100104.81
2022-12-15T08:34:04.553Z,100098.56
2022-12-15T08:35:25.307Z,100115.16
2022-12-15T08:36:30.748Z,100109.13
2022-12-15T08:37:32.566Z,100114.91
2022-12-15T08:38:35.428Z,100125.59
2022-12-15T08:39:37.349Z,100109.50
2022-12-15T08:40:39.165Z,100119.00
2022-12-15T08:41:41.289Z,100130.31
2022-12-15T08:42:43.814Z,100117.69
2022-12-15T08:43:49.388Z,100126.81
2022-12-15T08:44:51.973Z,100129.47
2022-12-15T08:45:53.832Z,100123.00
2022-12-15T08:46:55.616Z,100137.41
2022-12-15T08:47:57.542Z,100134.78
2022-12-15T08:49:00.633Z,100132.25
2022-12-15T08:50:02.533Z,100123.00
2022-12-15T08:51:05.008Z,100126.09
2022-12-15T08:52:06.794Z,100109.28
2022-12-15T08:54:33.031Z,100130.91
2022-12-15T08:55:34.862Z,100125.84
2022-12-15T08:56:36.736Z,100126.81
2022-12-15T08:57:39.172Z,100124.41
2022-12-15T08:58:41.158Z,100110.34
2022-12-15T08:59:42.947Z,100128.03
2022-12-15T09:00:45.045Z,100126.34
2022-12-15T09:01:47.120Z,100135.03
2022-12-15T09:02:49.121Z,100131.41
2022-12-15T09:03:53.955Z,100133.34
2022-12-15T09:04:55.908Z,100137.56
2022-12-15T09:06:02.674Z,100120.94
2022-12-15T09:07:04.781Z,100134.06
2022-12-15T09:08:07.034Z,100126.09
2022-12-15T09:09:11.779Z,100123.59
2022-12-15T09:10:13.550Z,100124.41
2022-12-15T09:11:15.468Z,100125.28
2022-12-15T09:12:17.414Z,100119.97
2022-12-15T09:13:19.303Z,100118.31
2022-12-15T09:14:27.284Z,100120.09
2022-12-15T09:16:07.223Z,100121.66
2022-12-15T09:16:52.969Z,100129.22
2022-12-15T09:17:54.819Z,100115.28
2022-12-15T09:18:59.036Z,100122.16
2022-12-15T09:20:01.184Z,100137.66
2022-12-15T09:21:06.440Z,100137.81
2022-12-15T09:22:08.273Z,100135.16
2022-12-15T09:23:10.045Z,100140.47
2022-12-15T09:24:23.172Z,100132.03
2022-12-15T09:25:28.054Z,100136.00
2022-12-15T09:26:32.342Z,100133.34
2022-12-15T09:27:35.031Z,100118.09
2022-12-15T09:28:40.533Z,100136.13
2022-12-15T09:29:42.478Z,100135.28
2022-12-15T09:30:44.492Z,100139.75
2022-12-15T09:31:46.718Z,100140.72
2022-12-15T09:32:48.478Z,100143.34
2022-12-15T09:33:52.531Z,100134.19
2022-12-15T09:34:54.636Z,100146.00
2022-12-15T09:35:56.487Z,100146.13
2022-12-15T09:36:58.407Z,100143.47
2022-12-15T09:38:00.383Z,100136.50
2022-12-15T09:39:03.218Z,100127.81
2022-12-15T09:40:06.681Z,100133.00
2022-12-15T09:41:20.117Z,100130.38
2022-12-15T09:42:30.324Z,100129.16
2022-12-15T09:43:34.689Z,100129.25
2022-12-15T09:44:38.227Z,100125.78
2022-12-15T09:45:45.484Z,100113.50
2022-12-15T09:47:08.615Z,100133.72
2022-12-15T09:48:17.082Z,100130.13
2022-12-15T09:49:36.840Z,100140.00
2022-12-15T09:50:41.069Z,100144.06
2022-12-15T09:51:54.712Z,100140.00
2022-12-15T09:53:00.575Z,100151.31
2022-12-15T09:54:03.095Z,100147.78
2022-12-15T09:55:27.601Z,100145.53
2022-12-15T09:56:44.252Z,100142.38
2022-12-15T09:57:57.663Z,100141.44
2022-12-15T09:59:17.521Z,100137.91
2022-12-15T10:00:31.203Z,100142.38
2022-12-15T10:02:00.523Z,100131.34
2022-12-15T10:03:32.417Z,100140.22
2022-12-15T10:04:34.602Z,100124.22
2022-12-15T10:06:14.741Z,100131.09
2022-12-15T10:07:27.555Z,100130.84
2022-12-15T10:08:33.077Z,100128.44
2022-12-15T10:09:36.988Z,100134.69
2022-12-15T10:10:48.917Z,100131.34
2022-12-15T10:12:11.354Z,100131.78
2022-12-15T10:13:24.964Z,100139.38
2022-12-15T10:14:35.867Z,100138.56
2022-12-15T10:15:56.968Z,100128.69
2022-12-15T10:17:04.930Z,100155.03
2022-12-15T10:18:18.851Z,100152.53
2022-12-15T10:19:37.008Z,100141.94
2022-12-15T10:20:38.950Z,100147.94
2022-12-15T10:21:41.357Z,100143.84
2022-12-15T10:22:43.172Z,100138.31
2022-12-15T10:23:45.135Z,100147.69
2022-12-15T10:26:25.875Z,100149.16
2022-12-15T10:27:49.228Z,100144.56
2022-12-15T10:29:33.011Z,100146.72
2022-12-15T10:30:35.647Z,100141.28
2022-12-15T10:32:00.405Z,100133.00
2022-12-15T10:33:02.110Z,100139.84
2022-12-15T10:34:24.155Z,100138.06
2022-12-15T10:35:34.652Z,100140.00
2022-12-15T10:36:36.481Z,100129.16
2022-12-15T10:37:39.172Z,100140.25
2022-12-15T10:38:45.474Z,100137.22
2022-12-15T10:39:50.320Z,100147.44
2022-12-15T10:41:12.667Z,100143.59
2022-12-15T10:42:22.089Z,100156.72
2022-12-15T10:43:29.651Z,100161.28
2022-12-15T10:44:38.068Z,100152.53
2022-12-15T10:45:40.014Z,100152.53
2022-12-15T10:46:44.400Z,100156.13
2022-12-15T10:47:58.951Z,100154.31
2022-12-15T10:49:06.498Z,100148.91
2022-12-15T10:50:25.332Z,100153.09
2022-12-15T10:51:32.840Z,100151.41
2022-12-15T10:52:37.332Z,100152.28
2022-12-15T10:53:50.243Z,100156.13
2022-12-15T10:55:36.455Z,100158.84
2022-12-15T10:57:20.673Z,100153.44
2022-12-15T10:58:23.325Z,100161.25
2022-12-15T10:59:33.776Z,100159.00
2022-12-15T11:00:35.926Z,100155.63
2022-12-15T11:01:37.853Z,100158.53
2022-12-15T11:02:42.219Z,100162.16
2022-12-15T11:03:45.909Z,100149.50
2022-12-15T11:04:56.142Z,100161.44
2022-12-15T11:05:57.927Z,100152.16
2022-12-15T11:07:02.296Z,100155.38
2022-12-15T11:08:22.971Z,100158.03
2022-12-15T11:09:39.316Z,100159.00
2022-12-15T11:11:16.695Z,100175.97
2022-12-15T11:12:40.355Z,100171.53
2022-12-15T11:13:43.515Z,100176.56
2022-12-15T11:14:51.289Z,100182.22
2022-12-15T11:15:56.490Z,100175.63
2022-12-15T11:16:59.649Z,100178.16
2022-12-15T11:18:27.129Z,100185.84
2022-12-15T11:19:40.780Z,100184.06
2022-12-15T11:20:50.565Z,100186.81
2022-12-15T11:21:59.920Z,100186.00
2022-12-15T11:23:13.310Z,100176.00
2022-12-15T11:24:21.613Z,100175.03
2022-12-15T11:25:42.848Z,100185.03
2022-12-15T11:27:02.113Z,100183.91
2022-12-15T11:28:12.536Z,100182.38
2022-12-15T11:29:23.451Z,100174.44
2022-12-15T11:30:33.819Z,100184.31
2022-12-15T11:31:38.909Z,100193.22
2022-12-15T11:32:48.921Z,100194.19
2022-12-15T11:33:55.008Z,100191.53
2022-12-15T11:34:57.089Z,100189.81
2022-12-15T11:36:34.060Z,100200.91
2022-12-15T11:37:52.069Z,100201.63
2022-12-15T11:39:04.026Z,100199.94
2022-12-15T11:40:42.561Z,100206.69
2022-12-15T11:41:53.316Z,100206.78
2022-12-15T11:43:11.056Z,100211.38
2022-12-15T11:44:24.958Z,100217.53
2022-12-15T11:45:50.980Z,100214.16
2022-12-15T11:46:58.844Z,100210.53
2022-12-15T11:48:38.619Z,100215.59
2022-12-15T11:51:24.415Z,100212.81
2022-12-15T11:52:40.753Z,100215.84
2022-12-15T11:54:30.061Z,100208.13
2022-12-15T11:55:52.788Z,100211.03
2022-12-15T11:57:17.821Z,100204.16
2022-12-15T11:58:41.082Z,100208.63
2022-12-15T11:59:59.076Z,100203.31
2022-12-15T12:01:23.850Z,100200.66
2022-12-15T12:03:02.055Z,100208.63
2022-12-15T12:04:17.744Z,100199.69
2022-12-15T12:05:41.057Z,100208.88
2022-12-15T12:06:55.615Z,100208.63
2022-12-15T12:08:22.111Z,100212.22
2022-12-15T12:09:46.869Z,100204.28
2022-12-15T12:11:14.010Z,100207.66
2022-12-15T12:12:30.449Z,100205.25
2022-12-15T12:13:42.968Z,100203.56
2022-12-15T12:15:15.173Z,100214.28
2022-12-15T12:16:36.071Z,100208.63
2022-12-15T12:17:46.027Z,100205.97
2022-12-15T12:19:13.190Z,100210.31
2022-12-15T12:20:19.348Z,100208.63
2022-12-15T12:21:27.474Z,100190.31
2022-12-15T12:22:36.078Z,100196.69
2022-12-15T12:23:40.552Z,100198.50
2022-12-15T12:24:48.869Z,100201.28
2022-12-15T12:26:08.033Z,100192.25
2022-12-15T12:27:09.733Z,100193.78
2022-12-15T12:28:22.970Z,100196.59
2022-12-15T12:29:35.526Z,100196.59
2022-12-15T12:30:50.436Z,100189.72
2022-12-15T12:32:04.498Z,100199.81
2022-12-15T12:33:15.265Z,100199.81
2022-12-15T12:34:29.380Z,100198.03
2022-12-15T12:35:34.016Z,100204.28
2022-12-15T12:36:36.401Z,100199.09
2022-12-15T12:37:51.076Z,100196.94
2022-12-15T12:38:58.233Z,100199.09
2022-12-15T12:40:07.772Z,100194.03
2022-12-15T12:42:01.752Z,100196.91
2022-12-15T12:43:08.625Z,100188.25
2022-12-15T12:44:29.754Z,100202.09
2022-12-15T12:45:37.172Z,100203.78
2022-12-15T12:46:49.237Z,100191.41
2022-12-15T12:47:57.198Z,100203.31
2022-12-15T12:49:04.699Z,100207.75
2022-12-15T12:50:25.208Z,100207.66
2022-12-15T12:51:30.737Z,100210.41
2022-12-15T12:52:37.038Z,100210.53
2022-12-15T12:53:38.762Z,100206.06
2022-12-15T12:54:43.043Z,100181.66
2022-12-15T12:55:44.794Z,100196.59
2022-12-15T12:56:48.688Z,100201.03
2022-12-15T12:57:53.666Z,100204.63
2022-12-15T12:58:55.431Z,100209.84
2022-12-15T13:00:01.215Z,100209.09
2022-12-15T13:01:05.722Z,100210.78
2022-12-15T13:02:45.490Z,100211.84
2022-12-15T13:04:06.817Z,100207.03
2022-12-15T13:05:35.597Z,100217.03
2022-12-15T13:06:40.216Z,100218.97
2022-12-15T13:07:41.928Z,100216.56
2022-12-15T13:08:51.056Z,100219.47
2022-12-15T13:10:17.276Z,100216.66
2022-12-15T13:12:20.942Z,100213.78
2022-12-15T13:13:32.406Z,100214.13
2022-12-15T13:14:54.759Z,100197.31
2022-12-15T13:16:02.729Z,100194.03
2022-12-15T13:17:26.328Z,100212.22
2022-12-15T13:18:29.598Z,100210.66
2022-12-15T13:20:10.781Z,100211.38
2022-12-15T13:21:41.667Z,100223.16
2022-12-15T13:22:43.654Z,100219.78
2022-12-15T13:23:46.173Z,100221.16
2022-12-15T13:24:52.368Z,100228.38
2022-12-15T13:25:57.050Z,100228.63
2022-12-15T13:27:20.045Z,100223.31
2022-12-15T13:28:42.862Z,100229.19
2022-12-15T13:30:14.529Z,100227.03